Time;durP1;ratioP1;P1;durP2;ratioP2;P2;SDS_P1;SDS_P2;PMS_P1;PMS_P2;Temp;Humidity;BMP_temperature;BMP_pressure;BME280_temperature;BME280_humidity;BME280_pressure;Samples;Min_cycle;Max_cycle;Signal;HPM_P1;HPM_P2
2023/01/25 00:01:51;;;;;;;23.73;15.07;;;;;;;5.02;69.64;102317.53;5022190;27;98715;-82
2023/01/25 00:04:18;;;;;;;22.80;11.60;;;;;;;5.13;69.71;102329.06;5033433;27;101464;-82
2023/01/25 00:06:44;;;;;;;15.57;10.07;;;;;;;4.95;69.09;102306.16;5004542;27;97195;-82
2023/01/25 00:09:10;;;;;;;14.57;9.27;;;;;;;4.93;69.48;102300.00;5018788;27;97053;-82
2023/01/25 00:11:36;;;;;;;14.07;9.07;;;;;;;5.12;69.16;102333.41;5015903;27;101291;-83
2023/01/25 00:14:02;;;;;;;16.17;9.57;;;;;;;5.01;69.08;102300.19;5015919;27;101242;-82
2023/01/25 00:16:28;;;;;;;16.63;10.27;;;;;;;5.17;69.35;102321.31;5028747;27;97311;-82
2023/01/25 00:18:53;;;;;;;20.90;12.00;;;;;;;5.21;68.90;102327.50;5007462;28;97200;-85
2023/01/25 00:21:21;;;;;;;20.07;12.00;;;;;;;5.19;69.58;102310.97;5044204;27;98375;-82
2023/01/25 00:23:46;;;;;;;22.03;12.97;;;;;;;5.29;69.55;102320.69;5040966;27;97908;-83
2023/01/25 00:26:12;;;;;;;26.20;15.67;;;;;;;5.24;68.86;102319.75;5005045;28;96965;-82
2023/01/25 00:28:38;;;;;;;24.20;14.27;;;;;;;5.28;69.15;102307.66;5035213;27;96870;-82
2023/01/25 00:31:05;;;;;;;21.23;12.47;;;;;;;5.27;68.94;102321.53;5028635;27;101269;-81
2023/01/25 00:33:40;;;;;;;21.03;13.00;;;;;;;5.27;68.85;102330.22;5005238;27;101175;-82
2023/01/25 00:36:27;;;;;;;25.17;14.73;;;;;;;5.23;69.10;102323.19;5028445;27;97299;-83
2023/01/25 00:38:53;;;;;;;25.27;14.47;;;;;;;5.16;69.22;102308.28;5046963;27;97035;-83
2023/01/25 00:41:19;;;;;;;23.03;13.10;;;;;;;5.11;69.11;102299.50;5036745;27;98432;-82
2023/01/25 00:43:44;;;;;;;22.40;13.13;;;;;;;5.21;68.93;102310.16;5036723;27;100944;-82
2023/01/25 00:46:14;;;;;;;24.90;13.63;;;;;;;5.18;69.03;102304.00;5034716;27;97341;-82
2023/01/25 00:48:40;;;;;;;20.13;12.43;;;;;;;5.19;68.85;102298.81;5044854;27;97396;-81
2023/01/25 00:51:05;;;;;;;21.03;12.20;;;;;;;5.18;69.19;102302.28;4996506;27;101578;-83
2023/01/25 00:53:31;;;;;;;19.30;11.90;;;;;;;5.23;68.80;102304.94;5001146;28;101537;-83
2023/01/25 00:55:56;;;;;;;17.63;11.53;;;;;;;5.24;68.89;102296.31;5001372;28;96837;-87
2023/01/25 00:58:23;;;;;;;20.30;12.37;;;;;;;5.28;68.86;102303.31;4997644;27;96864;-82
2023/01/25 01:00:51;;;;;;;19.43;12.17;;;;;;;5.26;68.77;102291.97;5002357;27;101564;-82
2023/01/25 01:03:17;;;;;;;25.40;14.07;;;;;;;5.26;68.59;102288.50;5045212;27;97927;-84
2023/01/25 01:05:44;;;;;;;28.00;16.17;;;;;;;5.26;68.89;102291.97;5006436;27;96786;-82
2023/01/25 01:08:11;;;;;;;24.17;14.93;;;;;;;5.14;69.27;102265.72;5012619;27;97307;-82
2023/01/25 01:10:37;;;;;;;25.83;16.17;;;;;;;5.32;69.24;102293.84;5034474;27;101520;-82
2023/01/25 01:13:03;;;;;;;30.27;16.40;;;;;;;5.33;69.00;102274.78;5028687;27;101015;-82
2023/01/25 01:15:29;;;;;;;24.33;15.10;;;;;;;5.15;69.01;102234.53;5033392;27;96748;-82
2023/01/25 01:17:54;;;;;;;28.00;16.20;;;;;;;5.28;69.34;102264.25;5016788;27;97101;-82
2023/01/25 01:20:20;;;;;;;30.20;17.83;;;;;;;5.27;69.29;102246.88;5020723;27;101197;-84
2023/01/25 01:22:46;;;;;;;29.33;17.60;;;;;;;5.26;69.24;102239.03;5034809;27;100927;-82
2023/01/25 01:25:12;;;;;;;28.73;16.77;;;;;;;5.28;69.04;102245.16;5022544;27;96980;-82
2023/01/25 01:27:37;;;;;;;27.03;17.37;;;;;;;5.32;69.42;102254.75;5007918;27;97237;-83
2023/01/25 01:30:04;;;;;;;27.70;16.23;;;;;;;5.25;69.30;102237.28;5008288;27;101437;-84
2023/01/25 01:32:30;;;;;;;29.67;17.77;;;;;;;5.25;69.15;102234.69;5018103;28;101264;-82
2023/01/25 01:34:56;;;;;;;27.27;16.80;;;;;;;5.31;68.72;102240.88;5039466;27;97303;-83
2023/01/25 01:37:21;;;;;;;29.07;17.40;;;;;;;5.19;69.17;102223.31;5001837;27;96850;-82
2023/01/25 01:39:47;;;;;;;29.73;18.30;;;;;;;5.25;69.30;102230.34;5040901;27;97500;-82
2023/01/25 01:42:12;;;;;;;28.40;16.53;;;;;;;5.20;69.37;102224.16;5019752;27;101227;-83
2023/01/25 01:44:50;;;;;;;26.10;15.60;;;;;;;5.32;69.11;102244.34;5017192;27;97683;-82
2023/01/25 01:47:37;;;;;;;26.37;15.80;;;;;;;5.32;69.02;102247.81;5037017;27;97260;-84
2023/01/25 01:50:18;;;;;;;20.27;11.97;;;;;;;5.31;69.31;102240.00;5048594;27;101659;-82
2023/01/25 01:52:43;;;;;;;19.93;13.60;;;;;;;5.24;69.01;102217.31;5002068;27;101659;-84
2023/01/25 01:55:12;;;;;;;27.23;14.20;;;;;;;5.30;68.68;102227.84;5018535;27;97296;-82
2023/01/25 01:57:43;;;;;;;24.88;13.73;;;;;;;5.32;69.24;102228.72;5021894;27;97326;-82
2023/01/25 02:00:16;;;;;;;25.27;14.33;;;;;;;5.24;68.89;102219.91;4997852;28;100812;-84
2023/01/25 02:02:44;;;;;;;25.27;15.17;;;;;;;5.20;69.30;102227.66;5041125;27;101543;-84
2023/01/25 02:05:24;;;;;;;24.53;15.70;;;;;;;5.11;69.19;102208.38;5025584;27;97046;-82
2023/01/25 02:07:51;;;;;;;29.77;16.10;;;;;;;5.27;69.17;102223.44;5037286;27;96815;-84
2023/01/25 02:10:19;;;;;;;25.17;15.40;;;;;;;5.23;68.90;102221.63;5020783;27;101497;-84
2023/01/25 02:12:46;;;;;;;24.53;15.33;;;;;;;5.27;69.14;102215.63;5049079;27;100453;-84
2023/01/25 02:15:12;;;;;;;22.87;14.00;;;;;;;5.27;68.98;102223.44;5016391;27;96706;-84
2023/01/25 02:17:39;;;;;;;26.17;15.83;;;;;;;5.14;69.32;102200.63;5009994;28;96866;-84
2023/01/25 02:20:39;;;;;;;25.23;14.13;;;;;;;5.26;69.09;102215.59;5023001;27;98166;-84
2023/01/25 02:23:27;;;;;;;26.57;14.03;;;;;;;5.23;69.17;102216.41;5018537;27;101610;-85
2023/01/25 02:25:54;;;;;;;20.97;12.27;;;;;;;5.20;68.89;102213.75;5043188;27;97371;-84
2023/01/25 02:28:44;;;;;;;20.37;12.70;;;;;;;5.23;68.95;102224.22;5034599;27;97179;-86
2023/01/25 02:31:10;;;;;;;19.83;11.90;;;;;;;5.21;68.84;102226.81;5015963;27;102395;-84
2023/01/25 02:33:35;;;;;;;19.03;12.50;;;;;;;5.13;68.81;102204.97;4999993;27;101911;-84
2023/01/25 02:36:05;;;;;;;22.97;13.13;;;;;;;5.28;68.63;102220.00;5019929;27;96915;-84
2023/01/25 02:38:33;;;;;;;21.00;12.53;;;;;;;5.17;68.75;102196.34;5010822;27;96899;-84
2023/01/25 02:41:07;;;;;;;24.57;13.53;;;;;;;5.27;69.05;102213.03;5033383;27;101645;-87
2023/01/25 02:43:33;;;;;;;22.70;12.57;;;;;;;5.26;69.09;102218.19;5025865;27;101239;-84
2023/01/25 02:46:26;;;;;;;20.73;12.30;;;;;;;5.26;68.85;102213.88;5025911;27;97097;-88
2023/01/25 02:48:55;;;;;;;22.27;12.77;;;;;;;5.31;68.86;102212.22;5012091;27;96861;-85
2023/01/25 02:51:22;;;;;;;19.77;10.73;;;;;;;5.25;68.78;102208.66;5008787;27;101771;-83
2023/01/25 02:53:48;;;;;;;18.97;11.60;;;;;;;5.16;68.83;102192.00;5035875;27;101639;-84
2023/01/25 02:56:14;;;;;;;18.10;12.00;;;;;;;5.26;69.01;102198.25;5006284;27;97028;-85
2023/01/25 02:58:40;;;;;;;19.40;11.70;;;;;;;5.26;68.77;102208.66;5003898;27;96964;-84
2023/01/25 03:01:06;;;;;;;19.10;11.10;;;;;;;5.15;68.86;102203.28;5023929;28;101337;-84
2023/01/25 03:03:31;;;;;;;17.17;10.53;;;;;;;5.22;68.94;102212.06;5023028;27;101188;-85
2023/01/25 03:05:57;;;;;;;16.33;10.80;;;;;;;5.20;68.49;102208.56;5029430;27;98024;-84
2023/01/25 03:08:24;;;;;;;13.47;9.80;;;;;;;5.27;68.64;102206.97;5034524;27;96996;-84
2023/01/25 03:10:55;;;;;;;17.20;10.40;;;;;;;5.31;68.73;102213.97;5032283;27;101479;-84
2023/01/25 03:13:21;;;;;;;15.10;10.20;;;;;;;5.25;68.95;102193.91;5037013;27;98009;-84
2023/01/25 03:15:47;;;;;;;16.83;10.17;;;;;;;5.27;68.56;102197.41;5004886;27;96645;-84
2023/01/25 03:18:12;;;;;;;16.43;10.70;;;;;;;5.24;68.70;102191.28;5019990;27;97216;-85
2023/01/25 03:20:38;;;;;;;20.83;12.63;;;;;;;5.20;68.16;102192.94;5019684;28;98026;-84
2023/01/25 03:23:03;;;;;;;22.70;12.83;;;;;;;5.19;68.26;102188.59;4987993;28;101708;-88
2023/01/25 03:25:30;;;;;;;19.03;11.87;;;;;;;5.07;68.52;102180.56;5009584;27;97164;-82
2023/01/25 03:28:03;;;;;;;20.13;13.10;;;;;;;5.16;68.77;102197.22;5005454;28;97544;-86
2023/01/25 03:30:28;;;;;;;21.83;13.60;;;;;;;5.01;68.58;102168.31;4994614;28;101779;-84
2023/01/25 03:32:55;;;;;;;21.07;13.93;;;;;;;5.10;69.01;102178.88;4981860;28;101520;-84
2023/01/25 03:35:22;;;;;;;21.87;14.47;;;;;;;5.20;68.63;102190.31;4985704;28;97461;-86
2023/01/25 03:37:47;;;;;;;22.03;13.27;;;;;;;5.18;68.95;102192.03;4989596;28;96911;-85
2023/01/25 03:40:13;;;;;;;22.10;13.93;;;;;;;5.14;68.71;102191.09;5009423;28;101038;-86
2023/01/25 03:42:43;;;;;;;23.53;14.33;;;;;;;5.08;69.07;102172.75;4981524;28;101453;-86
2023/01/25 03:45:09;;;;;;;21.77;14.57;;;;;;;5.21;68.71;102177.34;4999785;28;96769;-84
2023/01/25 03:47:35;;;;;;;22.27;13.53;;;;;;;5.22;69.16;102178.22;4977699;27;96948;-84
2023/01/25 03:50:01;;;;;;;24.43;13.77;;;;;;;5.13;68.86;102155.50;4983872;28;101263;-84
2023/01/25 03:52:28;;;;;;;22.00;12.57;;;;;;;5.24;68.85;102188.69;5003995;28;101902;-87
2023/01/25 03:54:55;;;;;;;25.90;14.60;;;;;;;5.18;68.59;102181.63;5003331;28;97354;-84
2023/01/25 03:57:22;;;;;;;23.17;14.30;;;;;;;5.18;68.81;102177.28;4988203;28;97512;-84
2023/01/25 03:59:56;;;;;;;26.10;14.43;;;;;;;5.19;68.83;102184.25;4977182;28;98991;-84
2023/01/25 04:02:21;;;;;;;23.43;13.47;;;;;;;5.15;68.78;102173.78;5005696;28;101005;-84
2023/01/25 04:04:47;;;;;;;21.10;13.37;;;;;;;5.14;68.67;102161.56;4985511;28;97299;-84
2023/01/25 04:07:15;;;;;;;24.13;13.00;;;;;;;5.22;68.21;102167.81;4982403;28;96878;-84
2023/01/25 04:09:40;;;;;;;21.87;12.90;;;;;;;5.18;68.33;102163.41;4981759;28;101294;-84
2023/01/25 04:12:08;;;;;;;23.43;14.90;;;;;;;5.16;68.80;102160.75;5030650;28;100393;-85
2023/01/25 04:14:34;;;;;;;28.60;15.70;;;;;;;5.15;68.27;102152.94;4995270;28;97105;-84
2023/01/25 04:17:04;;;;;;;24.57;15.30;;;;;;;5.20;68.53;102159.94;4997393;28;98117;-84
2023/01/25 04:19:55;;;;;;;24.10;14.87;;;;;;;5.18;68.71;102156.47;5016794;28;99348;-86
2023/01/25 04:22:25;;;;;;;23.80;14.50;;;;;;;5.13;68.60;102136.41;4985087;28;102113;-84
2023/01/25 04:24:54;;;;;;;25.57;14.17;;;;;;;5.24;68.75;102154.81;4987346;28;97020;-84
2023/01/25 04:27:19;;;;;;;27.37;14.80;;;;;;;5.20;68.60;102140.84;4998713;28;97013;-84
2023/01/25 04:29:56;;;;;;;27.07;15.03;;;;;;;5.27;68.38;102152.28;5001983;28;102058;-85
2023/01/25 04:32:24;;;;;;;23.17;15.13;;;;;;;5.27;68.47;102147.94;4984124;28;101804;-84
2023/01/25 04:34:49;;;;;;;26.73;15.73;;;;;;;5.23;68.72;102143.50;4991804;28;96913;-84
2023/01/25 04:37:20;;;;;;;23.57;14.47;;;;;;;5.22;69.10;102142.63;4990313;28;96969;-84
2023/01/25 04:39:57;;;;;;;28.17;16.10;;;;;;;5.19;69.02;102139.13;5002912;28;101787;-84
2023/01/25 04:42:23;;;;;;;25.03;14.40;;;;;;;5.18;69.24;102143.44;4993166;28;101443;-84
2023/01/25 04:44:53;;;;;;;27.50;15.63;;;;;;;5.09;68.70;102124.16;5006000;28;97308;-84
2023/01/25 04:47:18;;;;;;;25.87;15.47;;;;;;;5.14;68.55;102128.59;5008305;28;97388;-84
2023/01/25 04:49:44;;;;;;;26.03;14.53;;;;;;;5.14;68.42;102131.22;4986980;28;101505;-84
2023/01/25 04:52:13;;;;;;;32.50;16.10;;;;;;;5.16;68.38;102134.72;4984671;28;101719;-88
2023/01/25 04:54:39;;;;;;;26.30;15.30;;;;;;;5.13;68.39;102141.63;5006030;27;97206;-84
2023/01/25 04:57:05;;;;;;;30.43;17.10;;;;;;;5.16;68.77;102144.28;5002979;28;97101;-86
2023/01/25 04:59:30;;;;;;;28.57;15.43;;;;;;;5.18;68.65;102140.84;5004999;28;101669;-84
2023/01/25 05:01:56;;;;;;;28.13;15.77;;;;;;;5.17;68.75;102133.88;5003417;28;100930;-86
2023/01/25 05:04:23;;;;;;;26.53;15.93;;;;;;;5.20;68.63;102130.44;4992576;28;97192;-84
2023/01/25 05:06:50;;;;;;;29.33;16.23;;;;;;;5.19;68.68;102126.09;4976975;28;96976;-84
2023/01/25 05:09:16;;;;;;;31.70;17.27;;;;;;;4.99;68.80;102091.91;4985680;28;101627;-84
2023/01/25 05:11:43;;;;;;;27.47;16.57;;;;;;;5.18;68.70;102120.00;5013829;28;100847;-86
2023/01/25 05:14:20;;;;;;;26.87;15.73;;;;;;;5.20;68.45;102120.91;4987055;28;97158;-85
2023/01/25 05:16:46;;;;;;;28.60;16.17;;;;;;;5.16;68.76;102111.28;4997263;28;96881;-85
2023/01/25 05:19:13;;;;;;;33.67;17.67;;;;;;;5.20;68.54;102120.03;4989858;28;101542;-86
2023/01/25 05:21:58;;;;;;;28.30;16.27;;;;;;;5.21;68.82;102124.41;4988720;27;99938;-84
2023/01/25 05:24:27;;;;;;;30.40;17.03;;;;;;;5.18;68.87;102121.75;5000822;28;96761;-85
2023/01/25 05:26:59;;;;;;;26.00;15.83;;;;;;;5.17;68.50;102114.78;5009295;28;97243;-84
2023/01/25 05:29:45;;;;;;;29.77;16.23;;;;;;;5.15;68.83;102113.88;5006032;28;101636;-84
2023/01/25 05:32:14;;;;;;;29.40;15.00;;;;;;;5.05;68.31;102115.44;5028257;27;101581;-84
2023/01/25 05:34:40;;;;;;;27.67;16.33;;;;;;;4.60;68.79;102086.88;5001014;28;97278;-85
2023/01/25 05:37:07;;;;;;;28.87;15.97;;;;;;;4.64;69.66;102104.28;4989884;27;97176;-86
2023/01/25 05:39:34;;;;;;;29.40;17.27;;;;;;;4.67;69.67;102099.16;5011032;28;101895;-86
2023/01/25 05:41:59;;;;;;;30.60;16.30;;;;;;;4.73;69.21;102097.53;4992081;28;101160;-84
2023/01/25 05:44:25;;;;;;;31.07;16.60;;;;;;;4.80;69.23;102097.63;5001156;28;97016;-84
2023/01/25 05:46:51;;;;;;;29.30;15.80;;;;;;;4.85;69.25;102104.69;4993239;28;97996;-84
2023/01/25 05:49:17;;;;;;;29.50;17.30;;;;;;;4.85;69.14;102091.66;5007591;28;101527;-84
2023/01/25 05:51:43;;;;;;;29.23;16.23;;;;;;;4.83;69.15;102079.47;4983303;28;101362;-87
2023/01/25 05:54:15;;;;;;;28.13;16.63;;;;;;;4.92;69.04;102093.53;4981771;28;96866;-85
2023/01/25 05:56:48;;;;;;;28.30;15.83;;;;;;;5.01;68.87;102090.22;5005881;28;97026;-88
2023/01/25 05:59:13;;;;;;;30.00;17.73;;;;;;;4.83;68.61;102062.16;4988358;28;101517;-84
2023/01/25 06:01:40;;;;;;;31.63;17.70;;;;;;;4.96;68.84;102087.53;5001476;28;101604;-83
2023/01/25 06:04:05;;;;;;;37.00;18.20;;;;;;;4.90;68.77;102074.41;5000943;28;96820;-85
2023/01/25 06:06:31;;;;;;;29.77;16.93;;;;;;;4.93;68.71;102084.00;5025628;28;96878;-83
2023/01/25 06:08:56;;;;;;;32.97;17.00;;;;;;;4.95;68.53;102093.59;4993554;28;101488;-83
2023/01/25 06:11:23;;;;;;;31.70;16.07;;;;;;;4.92;68.27;102090.94;4971380;28;101491;-85
2023/01/25 06:13:51;;;;;;;31.60;17.67;;;;;;;4.83;68.79;102089.88;4976403;28;97606;-83
2023/01/25 06:16:17;;;;;;;29.53;16.30;;;;;;;4.80;69.08;102082.94;4992952;28;96884;-84
2023/01/25 06:19:06;;;;;;;34.07;17.77;;;;;;;4.76;69.29;102081.97;5000524;28;98187;-82
2023/01/25 06:22:06;;;;;;;35.13;18.83;;;;;;;4.80;69.46;102076.81;5007707;27;99069;-82
2023/01/25 06:24:32;;;;;;;29.67;17.47;;;;;;;4.76;69.25;102063.75;4996238;27;97497;-82
2023/01/25 06:26:58;;;;;;;31.30;16.43;;;;;;;4.84;69.06;102076.91;5001553;27;97198;-80
2023/01/25 06:29:23;;;;;;;29.20;16.60;;;;;;;4.78;69.57;102087.22;5013389;27;101438;-84
2023/01/25 06:31:49;;;;;;;31.20;17.03;;;;;;;4.80;69.12;102082.94;5016010;28;101266;-83
2023/01/25 06:34:15;;;;;;;27.00;16.20;;;;;;;4.70;69.43;102071.44;5015590;27;97077;-79
2023/01/25 06:36:41;;;;;;;29.50;16.93;;;;;;;4.83;69.02;102090.78;4990986;27;96895;-85
2023/01/25 06:39:07;;;;;;;28.27;16.13;;;;;;;4.62;69.11;102075.63;5021870;27;97083;-85
2023/01/25 06:41:32;;;;;;;29.03;16.73;;;;;;;4.50;70.07;102080.63;5002340;27;100054;-85
2023/01/25 06:43:58;;;;;;;26.73;16.07;;;;;;;4.42;70.41;102085.69;5041132;27;97495;-85
2023/01/25 06:46:24;;;;;;;31.97;17.30;;;;;;;4.40;70.18;102076.97;5016341;27;97624;-85
2023/01/25 06:48:49;;;;;;;28.90;15.93;;;;;;;4.37;70.54;102082.13;5018252;27;97648;-85
2023/01/25 06:51:15;;;;;;;31.03;16.00;;;;;;;4.23;70.99;102075.78;5020399;27;101419;-85
2023/01/25 06:53:42;;;;;;;27.07;15.87;;;;;;;4.17;70.61;102078.25;5017971;28;97645;-86
2023/01/25 06:56:10;;;;;;;29.27;14.77;;;;;;;3.99;71.14;102060.56;5036947;27;97304;-85
2023/01/25 06:58:36;;;;;;;26.37;14.70;;;;;;;4.17;70.78;102075.66;5022656;27;98665;-86
2023/01/25 07:01:07;;;;;;;28.43;15.53;;;;;;;4.23;70.84;102068.84;5043005;27;101652;-86
2023/01/25 07:03:33;;;;;;;25.83;14.80;;;;;;;4.27;70.94;102056.78;5036998;27;97247;-86
2023/01/25 07:06:00;;;;;;;32.00;16.87;;;;;;;4.45;70.87;102061.44;5016230;27;97461;-85
2023/01/25 07:08:26;;;;;;;29.93;16.83;;;;;;;4.54;70.53;102062.50;4990468;27;100914;-86
2023/01/25 07:10:56;;;;;;;25.37;15.40;;;;;;;4.63;70.30;102063.53;5055325;27;97976;-85
2023/01/25 07:13:23;;;;;;;31.00;17.80;;;;;;;4.69;70.16;102064.50;5012758;27;99467;-84
2023/01/25 07:15:57;;;;;;;30.57;16.40;;;;;;;4.60;69.98;102034.88;5012231;27;97334;-84
2023/01/25 07:18:24;;;;;;;26.57;15.20;;;;;;;4.79;69.67;102057.72;5038184;27;101622;-85
2023/01/25 07:20:49;;;;;;;28.80;15.97;;;;;;;4.74;69.87;102046.34;5031659;27;101250;-85
2023/01/25 07:23:15;;;;;;;29.73;17.37;;;;;;;4.81;69.77;102053.44;4977085;28;97297;-84
2023/01/25 07:25:44;;;;;;;33.07;18.07;;;;;;;4.70;69.87;102058.44;4995033;28;97691;-85
2023/01/25 07:28:10;;;;;;;33.27;18.03;;;;;;;4.71;69.95;102051.50;4998681;28;101868;-85
2023/01/25 07:30:35;;;;;;;28.97;16.13;;;;;;;4.65;69.46;102039.28;4985301;28;102033;-85
2023/01/25 07:33:01;;;;;;;26.00;14.87;;;;;;;4.69;69.72;102063.63;4996298;28;97171;-85
2023/01/25 07:35:27;;;;;;;28.97;15.23;;;;;;;4.71;69.50;102057.63;4978070;28;97117;-85
2023/01/25 07:37:54;;;;;;;26.53;14.23;;;;;;;4.66;69.51;102033.25;4998282;28;101422;-86
2023/01/25 07:40:19;;;;;;;26.20;14.13;;;;;;;4.75;69.35;102051.59;5014716;27;97140;-85
2023/01/25 07:42:45;;;;;;;24.23;14.97;;;;;;;4.71;69.69;102042.00;5003603;28;97374;-77
2023/01/25 07:45:12;;;;;;;26.73;15.23;;;;;;;4.80;69.09;102043.88;5002609;28;98074;-81
2023/01/25 07:47:37;;;;;;;25.93;14.80;;;;;;;4.80;69.17;102043.88;5017595;28;98122;-78
2023/01/25 07:50:03;;;;;;;24.57;13.97;;;;;;;4.80;68.90;102040.38;5002684;28;101341;-79
2023/01/25 07:52:29;;;;;;;27.27;12.93;;;;;;;4.78;69.16;102044.72;4999689;28;97524;-81
2023/01/25 07:54:54;;;;;;;23.97;14.87;;;;;;;4.67;68.96;102024.56;4993015;28;96804;-77
2023/01/25 07:57:20;;;;;;;20.83;12.63;;;;;;;4.65;69.24;102041.00;5000885;28;101072;-78
2023/01/25 07:59:45;;;;;;;23.17;12.50;;;;;;;4.37;69.16;102006.72;5003817;28;101355;-79
2023/01/25 08:02:11;;;;;;;24.10;12.13;;;;;;;4.49;69.47;102037.25;4974193;28;97251;-78
2023/01/25 08:04:37;;;;;;;23.47;13.87;;;;;;;4.48;69.84;102035.50;5001351;28;97438;-78
2023/01/25 08:07:03;;;;;;;24.93;12.93;;;;;;;4.36;69.42;101998.88;4975180;28;101177;-77
2023/01/25 08:09:28;;;;;;;22.70;12.67;;;;;;;4.46;69.25;102019.88;5005479;28;101601;-77
2023/01/25 08:11:54;;;;;;;21.53;12.13;;;;;;;4.40;69.26;102006.75;4987742;28;97410;-79
2023/01/25 08:14:19;;;;;;;20.87;11.63;;;;;;;4.53;69.50;102016.53;5029308;28;96827;-84
2023/01/25 08:16:45;;;;;;;19.50;11.63;;;;;;;4.63;69.39;102021.91;5000137;28;98836;-84
2023/01/25 08:19:11;;;;;;;21.47;12.53;;;;;;;4.70;68.60;102022.03;4973607;28;101612;-84
2023/01/25 08:21:36;;;;;;;20.50;12.47;;;;;;;4.69;68.87;102002.06;5009744;27;97490;-84
2023/01/25 08:24:04;;;;;;;21.83;13.27;;;;;;;4.74;68.95;102013.44;5010605;27;97198;-84
2023/01/25 08:26:30;;;;;;;22.87;12.87;;;;;;;4.78;68.86;102022.16;5027541;27;98499;-83
2023/01/25 08:28:56;;;;;;;22.37;13.80;;;;;;;4.78;68.86;102019.56;5033812;27;98049;-84
2023/01/25 08:31:24;;;;;;;20.67;10.93;;;;;;;4.70;68.73;102010.75;5012937;27;97562;-85
2023/01/25 08:33:50;;;;;;;18.73;10.70;;;;;;;4.68;69.03;102017.63;5017672;27;98350;-84
2023/01/25 08:36:17;;;;;;;17.80;10.80;;;;;;;4.71;68.77;102012.50;5009024;27;97970;-84
2023/01/25 08:38:46;;;;;;;20.43;12.30;;;;;;;4.62;69.10;102010.59;5020921;27;97506;-84
2023/01/25 08:41:15;;;;;;;17.53;10.87;;;;;;;4.69;68.93;102011.59;5007607;27;96917;-81
2023/01/25 08:43:41;;;;;;;18.00;10.30;;;;;;;4.52;68.91;101974.91;5005925;27;96907;-80
2023/01/25 08:46:07;;;;;;;25.07;13.90;;;;;;;4.76;69.06;102011.72;5010584;27;98185;-81
2023/01/25 08:48:32;;;;;;;20.83;12.90;;;;;;;4.77;69.06;102007.41;5007670;27;98355;-82
2023/01/25 08:50:59;;;;;;;20.17;12.43;;;;;;;4.85;69.17;102005.78;4991566;27;96886;-82
2023/01/25 08:53:30;;;;;;;20.20;11.67;;;;;;;4.85;69.16;101984.09;5023120;28;97275;-83
2023/01/25 08:55:56;;;;;;;20.53;11.53;;;;;;;4.89;69.16;101997.19;5018875;27;101679;-79
2023/01/25 08:58:21;;;;;;;17.00;10.13;;;;;;;4.94;69.12;101989.44;5014381;28;101305;-81
2023/01/25 09:00:48;;;;;;;16.90;9.67;;;;;;;4.94;68.63;101972.09;5015381;27;96839;-82
2023/01/25 09:03:13;;;;;;;17.37;10.70;;;;;;;4.92;68.12;101950.41;4986894;27;98022;-85
2023/01/25 09:05:39;;;;;;;18.80;10.90;;;;;;;4.91;68.81;101964.25;5032346;27;97830;-84
2023/01/25 09:08:06;;;;;;;19.97;11.23;;;;;;;4.97;68.51;101966.97;5015280;27;97757;-82
2023/01/25 09:10:33;;;;;;;18.70;11.83;;;;;;;5.00;68.59;101966.13;4986610;27;97953;-80
2023/01/25 09:12:59;;;;;;;18.27;11.13;;;;;;;4.98;68.09;101958.31;5010926;27;97661;-81
2023/01/25 09:15:25;;;;;;;17.67;10.60;;;;;;;4.97;68.53;101953.97;5006175;27;101369;-82
2023/01/25 09:17:52;;;;;;;20.67;11.40;;;;;;;5.02;68.55;101967.03;5024983;27;98668;-81
2023/01/25 09:20:18;;;;;;;20.93;12.13;;;;;;;5.02;68.09;101960.94;4993472;27;97422;-81
2023/01/25 09:22:43;;;;;;;17.97;11.93;;;;;;;5.02;68.41;101964.41;5001850;27;96817;-83
2023/01/25 09:25:09;;;;;;;20.83;12.60;;;;;;;5.09;68.73;101974.09;5009300;27;100980;-82
2023/01/25 09:27:34;;;;;;;24.27;14.10;;;;;;;5.03;68.66;101970.50;5006215;27;101508;-83
2023/01/25 09:30:00;;;;;;;21.50;13.00;;;;;;;5.02;68.57;101969.63;5014623;27;97198;-83
2023/01/25 09:32:26;;;;;;;25.13;14.40;;;;;;;4.97;69.06;101958.25;5035080;27;97574;-77
2023/01/25 09:34:52;;;;;;;23.93;14.37;;;;;;;4.99;68.74;101956.56;5020171;27;97941;-80
2023/01/25 09:37:18;;;;;;;25.13;13.17;;;;;;;4.99;68.64;101957.44;5009644;27;97881;-82
2023/01/25 09:39:43;;;;;;;24.43;13.47;;;;;;;4.95;68.93;101934.84;5018025;27;96699;-81
2023/01/25 09:42:21;;;;;;;23.67;13.70;;;;;;;5.05;68.83;101946.25;5010047;28;96995;-81
2023/01/25 09:45:11;;;;;;;23.03;14.00;;;;;;;5.07;68.77;101948.88;5012953;27;101571;-81
2023/01/25 09:48:12;;;;;;;24.60;14.07;;;;;;;5.09;68.57;101936.75;5013788;27;101232;-80
2023/01/25 09:50:57;;;;;;;21.37;12.53;;;;;;;4.98;68.82;101913.19;5042988;27;96729;-81
2023/01/25 09:53:32;;;;;;;22.53;13.47;;;;;;;5.07;69.01;101928.06;5031244;27;97676;-82
2023/01/25 09:56:02;;;;;;;27.43;14.77;;;;;;;5.05;69.18;101916.75;5014201;27;100944;-79
2023/01/25 09:58:33;;;;;;;22.30;13.57;;;;;;;5.10;69.00;101923.75;5001047;27;100953;-80
2023/01/25 10:01:27;;;;;;;20.10;12.35;;;;;;;5.12;68.63;101921.16;5021691;27;98328;-84
2023/01/25 10:03:52;;;;;;;17.17;12.07;;;;;;;5.10;68.98;101915.09;5005955;27;98800;-80
2023/01/25 10:06:22;;;;;;;19.70;13.27;;;;;;;5.03;68.73;101901.09;5021844;27;100750;-83
2023/01/25 10:09:01;;;;;;;17.23;12.27;;;;;;;5.12;68.59;101903.84;5013960;27;101329;-80
2023/01/25 10:11:29;;;;;;;17.07;11.07;;;;;;;5.14;68.60;101911.66;5038781;27;97269;-80
2023/01/25 10:13:56;;;;;;;20.23;12.47;;;;;;;5.14;68.68;101909.91;5009436;28;97396;-80
2023/01/25 10:16:27;;;;;;;22.63;12.77;;;;;;;5.03;68.50;101884.59;5018189;27;101287;-79
2023/01/25 10:19:11;;;;;;;18.90;12.70;;;;;;;4.97;68.18;101878.47;5027617;27;101154;-79
2023/01/25 10:21:40;;;;;;;18.60;11.97;;;;;;;5.14;68.43;101904.72;5014691;27;97020;-79
2023/01/25 10:24:30;;;;;;;20.47;13.00;;;;;;;4.99;68.48;101878.47;5017038;27;97508;-84
2023/01/25 10:27:20;;;;;;;23.57;14.00;;;;;;;5.12;68.68;101895.13;5030625;27;101356;-80
2023/01/25 10:29:47;;;;;;;23.20;13.97;;;;;;;5.04;68.94;101871.63;5014330;27;101031;-81
2023/01/25 10:32:25;;;;;;;21.77;14.90;;;;;;;5.12;68.88;101883.00;5003253;27;97314;-82
2023/01/25 10:34:51;;;;;;;20.00;14.60;;;;;;;5.12;68.78;101879.50;4997273;27;97257;-81
2023/01/25 10:37:28;;;;;;;23.67;15.37;;;;;;;5.05;68.64;101868.16;5023070;27;97799;-82
2023/01/25 10:40:01;;;;;;;20.00;14.40;;;;;;;5.17;68.79;101883.94;5014756;27;103164;-79
2023/01/25 10:42:30;;;;;;;19.67;13.83;;;;;;;5.17;68.99;101883.06;4990254;27;97287;-78
2023/01/25 10:44:56;;;;;;;21.20;12.90;;;;;;;5.18;68.85;101885.69;4991769;28;96921;-81
2023/01/25 10:47:28;;;;;;;19.47;13.57;;;;;;;5.17;68.41;101883.94;5021016;27;101871;-80
2023/01/25 10:49:55;;;;;;;17.27;11.70;;;;;;;5.09;68.88;101864.75;5006566;28;101430;-80
2023/01/25 10:52:24;;;;;;;22.63;12.60;;;;;;;5.24;68.35;101878.81;5042334;27;97291;-80
2023/01/25 10:55:12;;;;;;;20.60;13.53;;;;;;;5.24;68.38;101878.81;4994453;28;97009;-82
2023/01/25 10:57:42;;;;;;;20.40;12.53;;;;;;;5.25;68.50;101876.22;5024673;27;101397;-80
2023/01/25 11:00:18;;;;;;;21.13;14.00;;;;;;;5.33;68.47;101871.13;5001961;28;101089;-80
2023/01/25 11:02:46;;;;;;;17.80;11.93;;;;;;;5.29;68.43;101858.91;5025038;27;96765;-81
2023/01/25 11:05:31;;;;;;;13.90;9.17;;;;;;;5.27;67.78;101864.09;5032994;27;96855;-81
2023/01/25 11:07:58;;;;;;;13.30;9.07;;;;;;;5.16;67.57;101842.28;5011797;27;101444;-81
2023/01/25 11:10:34;;;;;;;15.60;10.57;;;;;;;5.16;67.22;101840.53;5020159;27;101096;-79
2023/01/25 11:13:12;;;;;;;17.90;12.77;;;;;;;5.28;67.56;101852.81;5018056;27;96784;-78
2023/01/25 11:15:39;;;;;;;20.73;12.47;;;;;;;5.28;67.68;101851.97;5002400;27;97511;-80
2023/01/25 11:18:06;;;;;;;17.00;11.07;;;;;;;5.33;68.20;101845.09;5026032;27;98361;-85
2023/01/25 11:20:32;;;;;;;16.00;11.20;;;;;;;5.32;67.62;101845.91;5005290;28;101479;-85
2023/01/25 11:22:57;;;;;;;15.23;9.90;;;;;;;5.33;67.37;101829.47;5022775;27;96767;-87